Steinauer, Nebraska
Current Conditions -  °F | °C
As of 7:55 PM on Wednesday 22 Oct 2014 (Local Time) from KBIE Reporting Station
Moderate Rain Moderate Rain  
Wind Chill: 63°   Ceiling: 7500
Heat Index: 63°   Visibility: 7mi
Dew Point: 59°   Wind: 18mph
Humidity: 87%   Direction: 200°SSW
Pressure: 30.05"   Gusts: 22mph
Location:  40.21°N, 96.23°W
Report Text: KBIE 230055Z AUTO 20016G19KT 7SM RA SCT039 BKN075 OVC100 17/15 A3005 RMK AO2 P0008 T01710150
Loading
Personal Weather Stations






























Interactive Weather Map
Tropical Storm Tracking
New forecast layout! Learn more

10-Day Weather Forecast

Advertisements
Track Severe Weather on mobile